Time;durP1;ratioP1;P1;durP2;ratioP2;P2;SDS_P1;SDS_P2;PMS_P1;PMS_P2;Temp;Humidity;BMP_temperature;BMP_pressure;BME280_temperature;BME280_humidity;BME280_pressure;Samples;Min_cycle;Max_cycle;Signal;HPM_P1;HPM_P2
2023/06/29 00:00:41;;;;;;;5.35;4.85;;;25.40;50.10;;;;;;5052667;28;20475;-78
2023/06/29 00:03:07;;;;;;;5.22;4.72;;;25.30;50.00;;;;;;5051188;28;20108;-78
2023/06/29 00:05:32;;;;;;;5.50;4.72;;;25.30;50.00;;;;;;5052646;28;20067;-78
2023/06/29 00:07:59;;;;;;;5.38;4.75;;;25.30;50.00;;;;;;5052365;28;20104;-78
2023/06/29 00:10:25;;;;;;;5.45;4.45;;;25.30;50.00;;;;;;5052242;28;20096;-78
2023/06/29 00:12:53;;;;;;;6.40;5.30;;;25.50;66.40;;;;;;5051990;28;20048;-78
2023/06/29 00:15:18;;;;;;;5.70;5.05;;;25.30;49.90;;;;;;5052226;28;20017;-78
2023/06/29 00:17:47;;;;;;;5.93;4.97;;;25.30;50.00;;;;;;5052265;28;20033;-78
2023/06/29 00:20:14;;;;;;;6.00;4.93;;;25.30;50.00;;;;;;5052642;28;20037;-78
2023/06/29 00:22:40;;;;;;;5.07;4.45;;;25.30;50.00;;;;;;5052455;28;20423;-77
2023/06/29 00:25:10;;;;;;;6.05;5.15;;;25.30;49.90;;;;;;5052883;28;20448;-78
2023/06/29 00:27:36;;;;;;;5.75;5.07;;;25.30;50.00;;;;;;5052372;28;20103;-78
2023/06/29 00:30:03;;;;;;;5.40;4.75;;;25.30;49.90;;;;;;5052243;28;20021;-77
2023/06/29 00:32:29;;;;;;;5.32;4.80;;;25.30;50.00;;;;;;5052040;28;20037;-78
2023/06/29 00:34:55;;;;;;;5.68;4.55;;;25.30;49.90;;;;;;5052190;28;20384;-78
2023/06/29 00:37:20;;;;;;;5.38;4.28;;;25.30;49.90;;;;;;5052075;28;20149;-78
2023/06/29 00:39:46;;;;;;;5.55;4.85;;;25.30;49.90;;;;;;5051840;28;20025;-78
2023/06/29 00:42:11;;;;;;;5.40;4.90;;;25.30;49.90;;;;;;5051717;28;20025;-78
2023/06/29 00:44:37;;;;;;;5.25;4.68;;;25.20;50.50;;;;;;5051720;28;20387;-78
2023/06/29 00:47:03;;;;;;;6.30;5.03;;;25.40;66.50;;;;;;5051670;28;20052;-78
2023/06/29 00:49:29;;;;;;;5.80;5.05;;;25.20;49.90;;;;;;5051689;28;20029;-77
2023/06/29 00:51:55;;;;;;;4.78;4.38;;;25.20;49.90;;;;;;5051839;28;20029;-77
2023/06/29 00:54:22;;;;;;;5.63;5.07;;;25.30;50.00;;;;;;5052122;28;20033;-82
2023/06/29 00:56:48;;;;;;;5.18;4.50;;;25.20;49.90;;;;;;5051722;28;20487;-82
2023/06/29 00:59:14;;;;;;;5.20;4.70;;;25.20;49.90;;;;;;5051614;28;20107;-82
2023/06/29 01:01:40;;;;;;;5.75;5.15;;;25.20;49.90;;;;;;5051423;28;20096;-82
2023/06/29 01:04:06;;;;;;;5.00;4.50;;;25.20;49.90;;;;;;5051625;28;20048;-82
2023/06/29 01:06:40;;;;;;;5.38;4.40;;;25.20;49.90;;;;;;5051529;28;20407;-82
2023/06/29 01:09:08;;;;;;;6.60;4.60;;;25.20;49.90;;;;;;5051348;28;20055;-82
2023/06/29 01:11:35;;;;;;;5.32;4.53;;;25.20;49.90;;;;;;5051538;28;20024;-82
2023/06/29 01:14:06;;;;;;;5.47;4.70;;;25.20;49.90;;;;;;5051126;28;20095;-82
2023/06/29 01:16:34;;;;;;;6.80;5.28;;;25.20;49.80;;;;;;5051385;28;20486;-81
2023/06/29 01:19:11;;;;;;;4.78;4.28;;;25.20;49.80;;;;;;5051422;28;20060;-82
2023/06/29 01:21:44;;;;;;;5.25;4.57;;;25.20;49.90;;;;;;5051352;28;20108;-82
2023/06/29 01:24:13;;;;;;;5.53;4.80;;;25.10;66.10;;;;;;5051437;28;20040;-78
2023/06/29 01:26:40;;;;;;;6.78;5.20;;;25.20;49.80;;;;;;5051342;28;20056;-78
2023/06/29 01:29:05;;;;;;;6.20;5.38;;;25.20;49.80;;;;;;5051535;28;20053;-78
2023/06/29 01:31:31;;;;;;;5.40;4.35;;;25.20;49.90;;;;;;5051166;28;20060;-78
2023/06/29 01:33:56;;;;;;;6.95;5.28;;;25.20;49.80;;;;;;5051079;28;20041;-78
2023/06/29 01:36:33;;;;;;;5.25;4.60;;;25.00;66.00;;;;;;5051173;28;20025;-78
2023/06/29 01:39:05;;;;;;;7.00;4.95;;;25.10;49.70;;;;;;5051276;28;20504;-78
2023/06/29 01:41:38;;;;;;;4.63;4.07;;;25.20;49.90;;;;;;5051683;28;20021;-78
2023/06/29 01:44:05;;;;;;;5.47;4.72;;;25.10;49.80;;;;;;5051221;28;20115;-78
2023/06/29 01:46:32;;;;;;;5.22;4.32;;;25.10;49.70;;;;;;5051111;28;20494;-78
2023/06/29 01:48:58;;;;;;;5.93;4.72;;;25.10;49.80;;;;;;5051106;28;20082;-78
2023/06/29 01:51:24;;;;;;;7.65;4.78;;;25.10;49.80;;;;;;5051445;28;20424;-78
2023/06/29 01:53:50;;;;;;;4.75;4.35;;;25.10;49.80;;;;;;5051330;28;20037;-77
2023/06/29 01:56:17;;;;;;;5.22;4.55;;;25.10;49.80;;;;;;5051365;28;20075;-77
2023/06/29 01:58:43;;;;;;;5.35;4.65;;;25.10;49.80;;;;;;5051406;28;20093;-78
2023/06/29 02:01:09;;;;;;;5.10;4.60;;;;;;;;;;5050947;28;20426;-78
2023/06/29 02:03:35;;;;;;;5.35;4.40;;;25.80;49.80;;;;;;5051316;28;20092;-78
2023/06/29 02:06:01;;;;;;;5.35;4.65;;;25.10;49.80;;;;;;5051107;28;20428;-77
2023/06/29 02:08:27;;;;;;;5.50;4.53;;;25.10;50.00;;;;;;5051677;28;20025;-78
2023/06/29 02:10:53;;;;;;;5.18;4.68;;;25.10;49.80;;;;;;5050996;28;20436;-77
2023/06/29 02:13:19;;;;;;;6.18;5.00;;;25.00;49.80;;;;;;5050605;28;20044;-77
2023/06/29 02:15:46;;;;;;;6.05;4.82;;;25.10;49.90;;;;;;5051158;28;20032;-78
2023/06/29 02:18:12;;;;;;;5.55;4.72;;;25.10;49.90;;;;;;5050997;28;20029;-77
2023/06/29 02:20:37;;;;;;;6.22;4.68;;;25.10;49.90;;;;;;5052322;28;20538;-77
2023/06/29 02:23:03;;;;;;;6.70;5.60;;;25.10;49.90;;;;;;5054439;28;20070;-77
2023/06/29 02:25:28;;;;;;;6.95;5.13;;;25.10;49.90;;;;;;5054388;28;20130;-77
2023/06/29 02:27:54;;;;;;;5.68;4.88;;;25.10;49.90;;;;;;5054349;28;20118;-77
2023/06/29 02:30:20;;;;;;;5.47;4.88;;;25.10;49.90;;;;;;5053121;28;20020;-78
2023/06/29 02:32:45;;;;;;;5.53;4.97;;;25.00;49.90;;;;;;5054293;28;20033;-77
2023/06/29 02:35:11;;;;;;;5.57;5.05;;;25.00;49.90;;;;;;5052888;28;20021;-77
2023/06/29 02:37:36;;;;;;;5.03;4.22;;;25.00;49.90;;;;;;5054927;28;20032;-82
2023/06/29 02:40:02;;;;;;;6.82;4.95;;;25.00;49.90;;;;;;5054121;28;20017;-82
2023/06/29 02:42:28;;;;;;;6.05;5.45;;;25.10;50.00;;;;;;5054081;28;20059;-81
2023/06/29 02:44:54;;;;;;;6.05;4.90;;;25.10;50.00;;;;;;5052736;28;20029;-82
2023/06/29 02:47:20;;;;;;;6.05;5.43;;;;;;;;;;5054053;28;20031;-82
2023/06/29 02:49:46;;;;;;;7.65;5.63;;;25.00;49.40;;;;;;5052931;28;20049;-82
2023/06/29 02:52:11;;;;;;;5.93;5.18;;;25.00;50.00;;;;;;5053808;28;20578;-82
2023/06/29 02:54:37;;;;;;;7.50;5.70;;;24.90;66.20;;;;;;5052565;28;20028;-82
2023/06/29 02:57:03;;;;;;;5.90;5.03;;;25.00;50.00;;;;;;5053733;28;20025;-82
2023/06/29 02:59:28;;;;;;;7.53;5.55;;;24.90;66.10;;;;;;5054060;28;20040;-82
2023/06/29 03:01:54;;;;;;;6.53;5.07;;;25.00;50.00;;;;;;5053694;28;20452;-82
2023/06/29 03:04:20;;;;;;;7.00;5.70;;;25.00;50.00;;;;;;5052455;28;20037;-82
2023/06/29 03:06:45;;;;;;;6.65;5.68;;;24.90;66.60;;;;;;5054259;28;20021;-81
2023/06/29 03:09:11;;;;;;;7.82;6.50;;;25.00;50.00;;;;;;5053786;28;20077;-81
2023/06/29 03:11:36;;;;;;;6.35;5.70;;;24.90;50.00;;;;;;5053538;28;20017;-81
2023/06/29 03:14:02;;;;;;;6.97;6.28;;;25.00;50.00;;;;;;5053412;28;20140;-82
2023/06/29 03:16:28;;;;;;;6.07;5.47;;;24.90;49.90;;;;;;5053823;28;20017;-82
2023/06/29 03:18:53;;;;;;;6.60;5.90;;;25.00;50.00;;;;;;5052212;28;20040;-82
2023/06/29 03:21:22;;;;;;;8.85;6.47;;;25.00;50.60;;;;;;5053377;28;20024;-82
2023/06/29 03:23:48;;;;;;;7.03;6.32;;;24.80;66.30;;;;;;5053284;28;20035;-82
2023/06/29 03:26:14;;;;;;;6.95;6.05;;;24.90;49.90;;;;;;5053424;28;20021;-82
2023/06/29 03:28:39;;;;;;;8.52;6.00;;;24.90;49.90;;;;;;5053375;28;20112;-82
2023/06/29 03:31:05;;;;;;;7.30;6.28;;;24.90;50.00;;;;;;5053354;28;20025;-82
2023/06/29 03:33:31;;;;;;;7.57;6.50;;;24.90;49.90;;;;;;5052493;28;20044;-82
2023/06/29 03:35:56;;;;;;;7.18;6.18;;;24.90;49.90;;;;;;5053291;28;20438;-82
2023/06/29 03:38:22;;;;;;;9.68;6.82;;;24.90;50.00;;;;;;5051779;28;20025;-82
2023/06/29 03:40:47;;;;;;;9.38;7.30;;;24.90;50.00;;;;;;5053143;28;20051;-82
2023/06/29 03:43:13;;;;;;;6.63;5.93;;;24.90;50.00;;;;;;5053234;28;20040;-82
2023/06/29 03:45:39;;;;;;;7.95;6.55;;;24.90;50.60;;;;;;5053119;28;20575;-82
2023/06/29 03:48:05;;;;;;;9.35;6.97;;;24.90;50.10;;;;;;5053397;28;20120;-82
2023/06/29 03:50:31;;;;;;;8.35;7.30;;;24.90;50.00;;;;;;5052991;28;20104;-82
2023/06/29 03:52:56;;;;;;;9.48;7.05;;;24.90;50.10;;;;;;5052842;28;20063;-82
2023/06/29 03:55:24;;;;;;;8.93;7.40;;;24.90;50.20;;;;;;5052932;28;20021;-82
2023/06/29 03:57:50;;;;;;;8.75;7.82;;;24.60;66.40;;;;;;5053859;28;20025;-83
2023/06/29 04:00:17;;;;;;;9.43;8.43;;;24.90;50.20;;;;;;5055617;28;20087;-82
2023/06/29 04:02:42;;;;;;;9.63;8.65;;;24.90;50.20;;;;;;5056153;28;20044;-81
2023/06/29 04:05:09;;;;;;;9.50;8.60;;;24.90;50.40;;;;;;5055564;28;20479;-82
2023/06/29 04:07:35;;;;;;;11.43;10.18;;;24.80;50.20;;;;;;5053615;28;20036;-81
2023/06/29 04:10:00;;;;;;;12.35;11.15;;;24.90;50.40;;;;;;5052944;28;20021;-82
2023/06/29 04:12:26;;;;;;;12.77;10.82;;;24.90;50.50;;;;;;5052467;28;20050;-82
2023/06/29 04:14:52;;;;;;;14.18;12.10;;;25.10;67.10;;;;;;5052892;28;20051;-78
2023/06/29 04:17:17;;;;;;;14.40;12.90;;;24.80;50.40;;;;;;5052591;28;20099;-77
2023/06/29 04:19:43;;;;;;;15.68;14.07;;;24.90;50.40;;;;;;5052457;28;20033;-77
2023/06/29 04:22:08;;;;;;;15.90;14.30;;;24.90;50.50;;;;;;5052599;28;20025;-77
2023/06/29 04:24:34;;;;;;;16.10;14.38;;;24.90;50.40;;;;;;5052660;28;20021;-77
2023/06/29 04:27:00;;;;;;;18.38;16.55;;;24.90;50.60;;;;;;5052280;28;20029;-78
2023/06/29 04:29:26;;;;;;;18.90;16.95;;;24.80;50.60;;;;;;5052029;28;20483;-77
2023/06/29 04:31:54;;;;;;;18.88;16.98;;;24.80;50.60;;;;;;5052528;28;20107;-78
2023/06/29 04:34:20;;;;;;;21.17;18.77;;;24.80;50.60;;;;;;5052009;28;20033;-77
2023/06/29 04:36:46;;;;;;;19.58;17.60;;;24.80;50.70;;;;;;5050508;28;20487;-77
2023/06/29 04:39:15;;;;;;;21.55;19.42;;;24.80;50.70;;;;;;5051993;28;20032;-77
2023/06/29 04:41:42;;;;;;;21.70;19.50;;;24.80;50.80;;;;;;5052024;28;20109;-78
2023/06/29 04:44:08;;;;;;;19.27;17.30;;;24.80;50.80;;;;;;5051510;28;20558;-82
2023/06/29 04:46:38;;;;;;;21.35;19.15;;;24.80;50.60;;;;;;5052172;28;20032;-82
2023/06/29 04:49:09;;;;;;;22.00;19.08;;;24.50;67.10;;;;;;5052131;28;20017;-81
2023/06/29 04:51:37;;;;;;;19.77;17.75;;;24.80;50.70;;;;;;5050956;28;20379;-82
2023/06/29 04:54:05;;;;;;;21.10;19.00;;;24.80;50.70;;;;;;5052001;28;20025;-82
2023/06/29 04:56:31;;;;;;;20.95;18.08;;;24.80;50.70;;;;;;5051668;28;20021;-82
2023/06/29 04:58:58;;;;;;;19.73;17.70;;;24.80;67.80;;;;;;5052387;28;20021;-81
2023/06/29 05:01:24;;;;;;;19.27;17.23;;;24.90;67.30;;;;;;5051772;28;20021;-82
2023/06/29 05:03:50;;;;;;;19.23;17.23;;;24.80;50.80;;;;;;5051560;28;20475;-82
2023/06/29 05:06:17;;;;;;;18.92;16.90;;;24.80;50.90;;;;;;5051598;28;20626;-82
2023/06/29 05:08:43;;;;;;;19.05;17.00;;;24.80;50.80;;;;;;5051792;28;20103;-82
2023/06/29 05:11:09;;;;;;;18.95;16.92;;;24.80;50.80;;;;;;5051818;28;20052;-82
2023/06/29 05:13:36;;;;;;;18.70;16.80;;;24.80;51.00;;;;;;5051324;28;20468;-82
2023/06/29 05:16:03;;;;;;;18.48;16.02;;;24.60;67.10;;;;;;5051701;28;20032;-82
2023/06/29 05:18:29;;;;;;;18.10;15.77;;;24.70;50.80;;;;;;5051789;28;20025;-82
2023/06/29 05:20:57;;;;;;;16.67;14.90;;;24.80;50.90;;;;;;5051399;28;20438;-80
2023/06/29 05:23:23;;;;;;;16.42;14.68;;;24.80;50.80;;;;;;5051636;28;20033;-79
2023/06/29 05:25:48;;;;;;;17.50;14.60;;;24.80;50.90;;;;;;5051274;28;20078;-79
2023/06/29 05:28:14;;;;;;;17.00;15.13;;;24.80;50.90;;;;;;5051994;28;20533;-80
2023/06/29 05:30:40;;;;;;;18.27;14.23;;;24.70;50.80;;;;;;5051352;28;20072;-79
2023/06/29 05:33:06;;;;;;;16.15;14.30;;;24.70;50.80;;;;;;5051473;28;20029;-78
2023/06/29 05:35:34;;;;;;;14.88;12.88;;;24.70;51.00;;;;;;5050012;28;20467;-78
2023/06/29 05:38:00;;;;;;;14.90;13.18;;;24.70;50.90;;;;;;5051533;28;20071;-78
2023/06/29 05:40:26;;;;;;;15.40;13.32;;;24.70;50.80;;;;;;5051678;28;20028;-78
2023/06/29 05:42:52;;;;;;;15.65;13.18;;;24.70;50.90;;;;;;5051528;28;20021;-78
2023/06/29 05:45:18;;;;;;;16.13;12.45;;;24.70;50.90;;;;;;5051234;28;20049;-78
2023/06/29 05:47:45;;;;;;;14.50;12.07;;;24.70;50.90;;;;;;5051562;28;20025;-78
2023/06/29 05:50:11;;;;;;;16.98;12.15;;;24.70;50.90;;;;;;5051161;28;20021;-79
2023/06/29 05:52:39;;;;;;;15.25;12.48;;;24.70;50.90;;;;;;5051344;28;20037;-78
2023/06/29 05:55:05;;;;;;;13.80;11.40;;;24.70;50.90;;;;;;5051969;28;20020;-77
2023/06/29 05:57:31;;;;;;;13.43;11.68;;;24.70;50.90;;;;;;5055396;28;20032;-78
2023/06/29 05:59:56;;;;;;;14.73;11.68;;;24.70;50.80;;;;;;5053651;28;20040;-79
2023/06/29 06:02:22;;;;;;;13.98;11.75;;;24.70;51.00;;;;;;5054930;28;20027;-78
2023/06/29 06:04:49;;;;;;;12.20;10.80;;;24.70;51.00;;;;;;5054932;28;20032;-77
2023/06/29 06:07:15;;;;;;;13.23;11.10;;;24.70;50.90;;;;;;5055252;28;20019;-77
2023/06/29 06:09:41;;;;;;;14.40;11.13;;;24.70;50.90;;;;;;5054888;28;20032;-78
2023/06/29 06:12:07;;;;;;;13.00;11.25;;;24.70;50.80;;;;;;5054896;28;20033;-78
2023/06/29 06:14:33;;;;;;;15.65;11.85;;;24.80;67.80;;;;;;5054834;28;20045;-78
2023/06/29 06:16:59;;;;;;;13.90;10.75;;;24.70;50.80;;;;;;5054922;28;20048;-78
2023/06/29 06:19:25;;;;;;;14.23;11.13;;;24.50;67.40;;;;;;5054510;28;20519;-77
2023/06/29 06:21:51;;;;;;;12.52;10.15;;;24.70;50.90;;;;;;5054792;28;20104;-79
2023/06/29 06:24:17;;;;;;;12.57;10.18;;;24.70;50.80;;;;;;5055256;28;20039;-79
2023/06/29 06:26:43;;;;;;;14.27;10.05;;;24.70;50.90;;;;;;5054423;28;20032;-77
2023/06/29 06:29:09;;;;;;;12.32;10.48;;;24.70;50.80;;;;;;5054322;28;20123;-77
2023/06/29 06:31:36;;;;;;;12.32;10.68;;;24.70;50.90;;;;;;5054324;28;20487;-77
2023/06/29 06:34:02;;;;;;;12.88;10.00;;;24.70;50.80;;;;;;5054351;28;20029;-77
2023/06/29 06:36:32;;;;;;;15.73;11.90;;;25.60;51.50;;;;;;5053051;28;20463;-78
2023/06/29 06:38:58;;;;;;;14.13;10.40;;;24.70;51.00;;;;;;5054689;28;20067;-77
2023/06/29 06:41:24;;;;;;;14.88;11.30;;;24.70;51.20;;;;;;5054492;28;20088;-78
2023/06/29 06:43:51;;;;;;;17.98;12.50;;;24.20;51.10;;;;;;5054412;28;20036;-77
2023/06/29 06:46:17;;;;;;;18.58;13.23;;;24.70;51.40;;;;;;5054300;28;20031;-77
2023/06/29 06:48:43;;;;;;;15.95;12.68;;;24.70;51.60;;;;;;5054083;28;20029;-77
2023/06/29 06:51:09;;;;;;;19.42;12.43;;;24.80;51.90;;;;;;5054256;28;20028;-76
2023/06/29 06:53:35;;;;;;;18.25;13.75;;;24.70;51.90;;;;;;5054750;28;20442;-78
2023/06/29 06:56:01;;;;;;;17.02;12.95;;;24.70;51.90;;;;;;5054183;28;20410;-79
2023/06/29 06:58:27;;;;;;;21.58;13.38;;;24.80;51.90;;;;;;5053852;28;20028;-79
2023/06/29 07:00:53;;;;;;;18.05;12.77;;;24.70;52.10;;;;;;5054077;28;20127;-81
2023/06/29 07:03:19;;;;;;;19.35;14.35;;;24.80;52.20;;;;;;5053856;28;20021;-78
2023/06/29 07:05:46;;;;;;;20.33;14.57;;;24.80;52.50;;;;;;5053432;28;20021;-78
2023/06/29 07:08:12;;;;;;;23.70;15.32;;;24.80;52.60;;;;;;5053890;28;20029;-80
2023/06/29 07:10:37;;;;;;;21.73;15.18;;;24.80;52.60;;;;;;5053710;28;20021;-81
2023/06/29 07:13:03;;;;;;;20.80;15.32;;;24.80;52.60;;;;;;5053436;28;20045;-79
2023/06/29 07:15:29;;;;;;;19.90;15.82;;;24.80;52.60;;;;;;5052350;28;20021;-83
2023/06/29 07:17:54;;;;;;;20.17;15.30;;;24.80;52.70;;;;;;5052280;28;20043;-78
2023/06/29 07:20:20;;;;;;;19.65;15.25;;;24.80;52.80;;;;;;5053506;28;20056;-83
2023/06/29 07:22:45;;;;;;;23.60;17.65;;;24.80;52.80;;;;;;5054246;28;20075;-80
2023/06/29 07:25:11;;;;;;;21.55;16.35;;;24.80;53.00;;;;;;5053448;28;20502;-82
2023/06/29 07:27:38;;;;;;;20.15;14.82;;;24.80;53.20;;;;;;5053266;28;20438;-78
2023/06/29 07:30:04;;;;;;;21.17;16.23;;;24.80;53.10;;;;;;5053360;28;20031;-78
2023/06/29 07:32:30;;;;;;;22.15;16.27;;;24.80;53.20;;;;;;5053146;28;20468;-79
2023/06/29 07:34:56;;;;;;;20.80;15.82;;;24.80;53.40;;;;;;5053235;28;20043;-79
2023/06/29 07:37:22;;;;;;;20.80;16.35;;;24.80;53.30;;;;;;5052970;28;20029;-79
2023/06/29 07:39:48;;;;;;;23.67;16.02;;;24.90;53.40;;;;;;5053406;28;20107;-80
2023/06/29 07:42:13;;;;;;;22.05;16.30;;;24.90;53.50;;;;;;5053054;28;20052;-80
2023/06/29 07:44:39;;;;;;;22.75;16.23;;;24.90;53.50;;;;;;5053202;28;20108;-79
2023/06/29 07:47:05;;;;;;;20.70;16.58;;;24.90;53.50;;;;;;5052982;28;20095;-77
2023/06/29 07:49:30;;;;;;;22.23;16.83;;;24.90;53.60;;;;;;5052787;28;20395;-77
2023/06/29 07:51:58;;;;;;;21.35;15.73;;;24.90;53.60;;;;;;5053377;28;20119;-77
2023/06/29 07:54:23;;;;;;;22.48;16.73;;;24.90;53.70;;;;;;5052567;28;20037;-77
2023/06/29 07:56:49;;;;;;;23.50;16.35;;;24.90;54.10;;;;;;5051383;28;20163;-77
2023/06/29 07:59:15;;;;;;;19.67;15.70;;;24.90;53.90;;;;;;5052860;28;20032;-77
2023/06/29 08:01:41;;;;;;;25.08;17.15;;;24.90;54.20;;;;;;5052733;28;20021;-77
2023/06/29 08:04:07;;;;;;;21.98;16.83;;;24.90;54.10;;;;;;5052721;28;20391;-77
2023/06/29 08:06:34;;;;;;;21.10;16.55;;;24.90;54.00;;;;;;5052729;28;20079;-77
2023/06/29 08:09:00;;;;;;;21.60;16.30;;;24.90;54.30;;;;;;5052667;28;20032;-76
2023/06/29 08:11:27;;;;;;;21.65;17.20;;;24.90;54.30;;;;;;5052533;28;20395;-74
2023/06/29 08:13:53;;;;;;;23.45;17.00;;;25.00;54.20;;;;;;5052073;28;20071;-77
2023/06/29 08:16:18;;;;;;;20.95;15.82;;;25.00;54.30;;;;;;5052348;28;20025;-76
2023/06/29 08:18:44;;;;;;;22.80;15.90;;;25.00;54.10;;;;;;5052510;28;20120;-76
2023/06/29 08:21:10;;;;;;;21.65;15.80;;;25.00;54.30;;;;;;5053074;28;20423;-75
2023/06/29 08:23:36;;;;;;;19.10;14.45;;;25.00;54.30;;;;;;5050887;28;20017;-76
2023/06/29 08:26:04;;;;;;;22.05;16.05;;;25.00;54.30;;;;;;5052172;28;20500;-77
2023/06/29 08:28:29;;;;;;;21.25;16.35;;;25.00;54.40;;;;;;5052076;28;20044;-75
2023/06/29 08:30:55;;;;;;;19.95;15.32;;;25.00;54.40;;;;;;5052070;28;20101;-73
2023/06/29 08:33:23;;;;;;;19.05;15.38;;;25.10;55.10;;;;;;5051950;28;20111;-74
2023/06/29 08:35:51;;;;;;;21.50;15.48;;;25.00;54.50;;;;;;5051947;28;20609;-75
2023/06/29 08:38:17;;;;;;;19.38;15.07;;;25.00;54.70;;;;;;5050753;28;20032;-74
2023/06/29 08:40:46;;;;;;;20.13;15.43;;;25.10;54.90;;;;;;5051809;28;20021;-74
2023/06/29 08:43:15;;;;;;;20.48;15.65;;;25.10;54.90;;;;;;5051796;28;20029;-73
2023/06/29 08:45:42;;;;;;;19.35;14.48;;;25.10;54.90;;;;;;5051603;28;20446;-75
2023/06/29 08:48:09;;;;;;;21.67;15.82;;;25.10;55.10;;;;;;5052259;28;20032;-74
2023/06/29 08:50:36;;;;;;;18.73;14.07;;;25.10;55.00;;;;;;5051704;28;20036;-74
2023/06/29 08:53:03;;;;;;;20.40;14.90;;;25.10;54.90;;;;;;5051669;28;20503;-74
2023/06/29 08:55:29;;;;;;;18.50;14.23;;;25.10;55.00;;;;;;5051647;28;20502;-74
2023/06/29 08:57:54;;;;;;;21.85;16.23;;;25.10;55.00;;;;;;5051706;28;20387;-75
2023/06/29 09:00:22;;;;;;;19.77;14.25;;;25.10;55.10;;;;;;5050490;28;20021;-75
2023/06/29 09:02:51;;;;;;;21.25;15.15;;;25.10;54.80;;;;;;5051417;28;20032;-75
2023/06/29 09:05:17;;;;;;;21.98;15.93;;;25.10;55.10;;;;;;5051643;28;20021;-75
2023/06/29 09:07:43;;;;;;;18.80;15.05;;;25.10;55.60;;;;;;5051399;28;20452;-75
2023/06/29 09:10:12;;;;;;;17.35;13.88;;;25.10;54.90;;;;;;5051749;28;20025;-76
2023/06/29 09:12:38;;;;;;;20.00;15.63;;;25.00;71.30;;;;;;5051252;28;20049;-75
2023/06/29 09:15:11;;;;;;;21.25;15.32;;;25.10;54.90;;;;;;5051719;28;20025;-75
2023/06/29 09:17:37;;;;;;;20.08;14.88;;;25.20;71.30;;;;;;5050118;28;20116;-76
2023/06/29 09:20:11;;;;;;;19.67;15.75;;;25.20;55.20;;;;;;5051390;28;20029;-76
2023/06/29 09:22:39;;;;;;;21.20;15.95;;;25.20;55.40;;;;;;5051414;28;20476;-75
2023/06/29 09:25:15;;;;;;;20.27;15.35;;;25.20;55.30;;;;;;5051454;28;20033;-76
2023/06/29 09:27:40;;;;;;;22.17;15.73;;;25.20;55.40;;;;;;5051580;28;20021;-75
2023/06/29 09:30:06;;;;;;;18.60;14.23;;;25.30;55.30;;;;;;5053837;28;20464;-74
2023/06/29 09:32:53;;;;;;;21.73;15.43;;;25.30;55.00;;;;;;5055219;28;20400;-74
2023/06/29 09:35:50;;;;;;;20.95;15.57;;;25.30;55.40;;;;;;5055276;28;20124;-72
2023/06/29 09:38:37;;;;;;;19.52;14.85;;;25.30;55.20;;;;;;5055279;28;20526;-75
2023/06/29 09:41:22;;;;;;;18.02;14.00;;;25.30;55.20;;;;;;5055138;28;20033;-75
2023/06/29 09:44:07;;;;;;;19.65;14.55;;;25.40;55.40;;;;;;5054969;28;20065;-74
2023/06/29 09:47:04;;;;;;;23.77;16.45;;;25.40;55.20;;;;;;5054925;28;20029;-73
2023/06/29 09:49:49;;;;;;;18.92;14.60;;;25.50;55.80;;;;;;5054898;28;20040;-74
2023/06/29 09:52:16;;;;;;;19.50;15.73;;;25.40;54.90;;;;;;5055072;28;20029;-74
2023/06/29 09:54:43;;;;;;;17.83;14.48;;;25.50;55.10;;;;;;5054975;28;20112;-75
2023/06/29 09:57:12;;;;;;;20.75;16.15;;;25.50;55.00;;;;;;5055099;28;20029;-74
2023/06/29 09:59:39;;;;;;;20.35;16.02;;;25.50;55.30;;;;;;5054962;28;20456;-74
2023/06/29 10:02:06;;;;;;;19.83;14.48;;;25.50;55.00;;;;;;5054861;28;20112;-74
2023/06/29 10:04:32;;;;;;;17.65;13.40;;;25.50;54.90;;;;;;5054857;28;20080;-76
2023/06/29 10:07:31;;;;;;;16.38;13.80;;;25.50;54.90;;;;;;5054788;28;20029;-76
2023/06/29 10:09:58;;;;;;;16.17;12.77;;;25.50;54.90;;;;;;5054379;28;20045;-76
2023/06/29 10:12:27;;;;;;;15.95;13.70;;;25.60;55.10;;;;;;5055081;28;20051;-75
2023/06/29 10:14:55;;;;;;;20.55;14.98;;;25.60;54.70;;;;;;5054546;28;20492;-75
2023/06/29 10:17:46;;;;;;;17.58;14.30;;;25.70;54.90;;;;;;5054626;28;20472;-75
2023/06/29 10:20:14;;;;;;;18.60;14.77;;;25.70;54.70;;;;;;5054857;28;20065;-74
2023/06/29 10:22:41;;;;;;;17.67;14.32;;;25.70;54.50;;;;;;5054894;28;20079;-74
2023/06/29 10:25:11;;;;;;;18.33;13.65;;;25.80;54.70;;;;;;5054770;28;20025;-79
2023/06/29 10:27:39;;;;;;;20.25;13.98;;;25.80;54.60;;;;;;5055291;28;20075;-82
2023/06/29 10:30:05;;;;;;;16.45;13.68;;;25.80;54.70;;;;;;5055447;28;20052;-80
2023/06/29 10:32:35;;;;;;;16.83;13.55;;;25.90;54.50;;;;;;5058656;28;20111;-78
2023/06/29 10:35:01;;;;;;;19.00;14.00;;;25.90;54.50;;;;;;5055035;28;20028;-79
2023/06/29 10:37:38;;;;;;;17.80;13.63;;;25.80;54.60;;;;;;5054494;28;20112;-80
2023/06/29 10:40:13;;;;;;;16.30;13.30;;;25.80;54.90;;;;;;5055105;28;20082;-78
2023/06/29 10:42:39;;;;;;;17.45;13.23;;;25.80;54.90;;;;;;5053847;28;20567;-78
2023/06/29 10:45:23;;;;;;;17.67;13.82;;;25.90;55.00;;;;;;5054536;28;20435;-80
2023/06/29 10:48:10;;;;;;;18.00;12.80;;;25.80;55.10;;;;;;5054010;28;20026;-77
2023/06/29 10:50:43;;;;;;;15.07;12.48;;;25.80;54.90;;;;;;5054423;28;20021;-80
2023/06/29 10:53:15;;;;;;;14.85;11.50;;;25.80;55.50;;;;;;5054237;28;20087;-75
2023/06/29 10:55:49;;;;;;;16.30;12.52;;;25.80;54.90;;;;;;5054006;28;20093;-75
2023/06/29 10:58:19;;;;;;;13.98;12.02;;;25.70;54.80;;;;;;5054140;28;20025;-76
2023/06/29 11:00:45;;;;;;;14.80;11.77;;;25.80;54.90;;;;;;5053786;28;20033;-81
2023/06/29 11:03:12;;;;;;;16.63;11.52;;;25.80;54.90;;;;;;5053886;28;20540;-77
2023/06/29 11:05:38;;;;;;;17.90;11.82;;;25.80;54.90;;;;;;5053816;28;20093;-75
2023/06/29 11:08:07;;;;;;;15.02;11.70;;;25.80;55.00;;;;;;5054012;28;20028;-76
2023/06/29 11:10:34;;;;;;;14.35;11.88;;;25.80;55.00;;;;;;5053940;28;20021;-76
2023/06/29 11:13:00;;;;;;;15.32;11.73;;;25.80;54.90;;;;;;5053344;28;20044;-76
2023/06/29 11:15:27;;;;;;;16.70;11.63;;;25.90;55.10;;;;;;5053814;28;20056;-76
2023/06/29 11:17:54;;;;;;;12.88;10.65;;;25.90;55.20;;;;;;5053427;28;20445;-76
2023/06/29 11:20:22;;;;;;;13.40;10.40;;;25.90;55.20;;;;;;5053636;28;20345;-77
2023/06/29 11:22:51;;;;;;;12.70;10.65;;;25.80;55.00;;;;;;5053766;28;20040;-79
2023/06/29 11:25:17;;;;;;;13.05;10.15;;;25.90;54.90;;;;;;5053533;28;20029;-77
2023/06/29 11:27:44;;;;;;;12.77;10.90;;;25.90;54.60;;;;;;5053199;28;20079;-76
2023/06/29 11:30:12;;;;;;;13.27;10.00;;;26.00;55.00;;;;;;5053557;28;20051;-77
2023/06/29 11:32:40;;;;;;;13.77;10.27;;;26.00;54.20;;;;;;5053162;28;20490;-77
2023/06/29 11:35:10;;;;;;;12.73;9.73;;;26.00;54.00;;;;;;5053363;28;20025;-77
2023/06/29 11:37:39;;;;;;;13.95;10.00;;;26.00;53.90;;;;;;5053192;28;20021;-77
2023/06/29 11:40:21;;;;;;;11.15;9.57;;;26.00;54.10;;;;;;5053085;28;20025;-77
2023/06/29 11:42:49;;;;;;;15.07;10.45;;;26.00;54.40;;;;;;5053379;28;20052;-77
2023/06/29 11:45:16;;;;;;;11.63;9.00;;;26.00;54.50;;;;;;5053632;28;20030;-77
2023/06/29 11:47:51;;;;;;;13.82;9.52;;;26.00;54.40;;;;;;5053183;28;20025;-77
2023/06/29 11:50:17;;;;;;;14.30;10.57;;;26.00;54.40;;;;;;5052771;28;20505;-77
2023/06/29 11:52:44;;;;;;;12.32;9.43;;;26.00;54.30;;;;;;5051895;28;20040;-77
2023/06/29 11:55:13;;;;;;;12.50;8.68;;;26.00;54.30;;;;;;5053006;28;20040;-77
2023/06/29 11:57:41;;;;;;;13.45;10.13;;;26.00;54.50;;;;;;5053159;28;20368;-76
2023/06/29 12:00:13;;;;;;;15.65;9.70;;;26.00;54.50;;;;;;5052985;28;20021;-75
2023/06/29 12:02:44;;;;;;;11.60;9.68;;;26.00;54.50;;;;;;5052455;28;20522;-76
2023/06/29 12:05:10;;;;;;;12.18;9.25;;;26.00;54.40;;;;;;5052814;28;20025;-76
2023/06/29 12:07:38;;;;;;;14.35;10.10;;;26.00;54.40;;;;;;5051385;28;20388;-76
2023/06/29 12:10:12;;;;;;;12.38;9.18;;;26.00;54.60;;;;;;5052529;28;20032;-76
2023/06/29 12:12:45;;;;;;;15.85;10.10;;;26.00;54.50;;;;;;5052057;28;20095;-76
2023/06/29 12:15:20;;;;;;;12.05;9.88;;;26.00;54.50;;;;;;5052739;28;20028;-76
2023/06/29 12:17:48;;;;;;;12.95;10.32;;;26.10;54.50;;;;;;5052174;28;20110;-76
2023/06/29 12:20:17;;;;;;;14.52;10.35;;;26.00;54.40;;;;;;5052472;28;20021;-76
2023/06/29 12:22:45;;;;;;;12.77;9.50;;;26.10;54.30;;;;;;5052202;28;20470;-76
2023/06/29 12:25:13;;;;;;;13.25;9.70;;;26.10;54.20;;;;;;5052284;28;20495;-76
2023/06/29 12:27:41;;;;;;;15.68;10.30;;;26.10;54.30;;;;;;5052345;28;20104;-76
2023/06/29 12:30:09;;;;;;;13.98;8.95;;;26.20;54.80;;;;;;5052048;28;20101;-76
2023/06/29 12:32:35;;;;;;;15.50;10.52;;;26.20;54.60;;;;;;5051968;28;20519;-76
2023/06/29 12:35:02;;;;;;;14.05;10.20;;;26.10;54.60;;;;;;5051914;28;20029;-76
2023/06/29 12:37:28;;;;;;;16.65;10.82;;;26.10;54.60;;;;;;5052174;28;20096;-76